Time;durP1;ratioP1;P1;durP2;ratioP2;P2;SDS_P1;SDS_P2;PMS_P1;PMS_P2;Temp;Humidity;BMP_temperature;BMP_pressure;BME280_temperature;BME280_humidity;BME280_pressure;Samples;Min_cycle;Max_cycle;Signal;HPM_P1;HPM_P2
2023/07/14 00:00:43;;;;;;;16.90;10.30;;;;;;;28.95;61.68;100778.56;5020224;28;69756;-50
2023/07/14 00:03:19;;;;;;;15.85;11.95;;;;;;;29.03;65.40;100787.47;5032506;28;66189;-47
2023/07/14 00:05:50;;;;;;;26.13;19.25;;;;;;;28.49;70.17;100668.78;5033288;28;70325;-47
2023/07/14 00:08:21;;;;;;;34.70;21.73;;;;;;;29.02;73.52;100769.63;5037877;28;65639;-45
2023/07/14 00:10:52;;;;;;;31.63;22.47;;;;;;;28.99;76.69;100776.28;5039581;28;70066;-45
2023/07/14 00:13:24;;;;;;;29.83;23.17;;;;;;;29.14;76.77;100795.81;5037221;28;65774;-43
2023/07/14 00:15:55;;;;;;;43.07;22.33;;;;;;;29.24;76.47;100795.38;5032670;28;70259;-46
2023/07/14 00:18:27;;;;;;;35.28;22.45;;;;;;;29.34;75.87;100811.16;5035840;28;65334;-47
2023/07/14 00:20:59;;;;;;;35.28;21.42;;;;;;;29.44;75.44;100819.63;5039174;28;71055;-46
2023/07/14 00:23:31;;;;;;;36.60;20.92;;;;;;;29.40;75.37;100810.31;5032891;28;66028;-47
2023/07/14 00:26:02;;;;;;;36.33;20.40;;;;;;;29.44;75.61;100805.31;5036263;28;69395;-47
2023/07/14 00:28:33;;;;;;;39.17;21.05;;;;;;;29.61;75.10;100825.41;5034758;28;66441;-46
2023/07/14 00:31:09;;;;;;;34.50;20.17;;;;;;;29.67;75.26;100835.44;5037002;28;69697;-46
2023/07/14 00:33:50;;;;;;;40.92;20.42;;;;;;;29.72;75.38;100830.19;5036618;28;66705;-46
2023/07/14 00:36:22;;;;;;;45.42;20.25;;;;;;;29.73;74.82;100837.28;5039782;28;70556;-45
2023/07/14 00:38:53;;;;;;;31.73;18.98;;;;;;;29.71;74.79;100838.53;5035015;28;65455;-47
2023/07/14 00:41:25;;;;;;;35.78;19.77;;;;;;;29.80;74.44;100835.34;5033339;28;70032;-47
2023/07/14 00:43:57;;;;;;;33.90;20.35;;;;;;;29.91;70.75;100833.03;5034630;28;66894;-46
2023/07/14 00:46:33;;;;;;;27.58;16.98;;;;;;;29.22;69.43;100711.00;5035421;28;69146;-46
2023/07/14 00:49:13;;;;;;;29.80;17.98;;;;;;;29.64;68.29;100760.13;5025754;28;66940;-47
2023/07/14 00:51:45;;;;;;;20.52;16.85;;;;;;;29.98;67.38;100823.03;5029859;28;69599;-47
2023/07/14 00:54:29;;;;;;;23.10;16.27;;;;;;;29.99;67.69;100835.50;5033704;28;66293;-46
2023/07/14 00:57:02;;;;;;;23.77;16.58;;;;;;;30.08;67.10;100838.78;5036130;28;69986;-47
2023/07/14 00:59:37;;;;;;;24.05;16.17;;;;;;;29.89;66.73;100799.97;5033046;28;66566;-46
2023/07/14 01:02:11;;;;;;;16.50;14.85;;;;;;;30.18;66.36;100853.50;5036369;28;70105;-46
2023/07/14 01:05:06;;;;;;;21.75;15.32;;;;;;;30.06;66.66;100847.09;5037735;28;66273;-47
2023/07/14 01:07:41;;;;;;;15.57;14.18;;;;;;;29.65;66.15;100764.50;5026730;28;70476;-46
2023/07/14 01:10:19;;;;;;;18.80;13.65;;;;;;;29.73;66.18;100772.38;5034756;28;66256;-46
2023/07/14 01:13:01;;;;;;;15.35;13.95;;;;;;;30.27;66.20;100849.50;5026313;28;70048;-46
2023/07/14 01:15:35;;;;;;;15.85;14.30;;;;;;;30.22;66.04;100835.81;5022429;28;65481;-46
2023/07/14 01:18:09;;;;;;;15.57;13.90;;;;;;;29.31;66.14;100684.56;5028260;28;70504;-47
2023/07/14 01:20:41;;;;;;;16.33;14.50;;;;;;;30.33;66.22;100857.81;5032774;28;65770;-47
2023/07/14 01:23:12;;;;;;;;;;;;;;;29.95;67.36;100851.31;5035040;28;70348;-45
2023/07/14 01:26:08;;;;;;;14.48;13.18;;;;;;;30.29;66.01;100852.00;5027339;28;66758;-46
2023/07/14 01:28:41;;;;;;;13.05;11.85;;;;;;;30.20;65.58;100821.66;5019437;28;69943;-47
2023/07/14 01:31:17;;;;;;;16.63;13.07;;;;;;;30.37;65.19;100842.78;5042402;28;65812;-46
2023/07/14 01:33:53;;;;;;;14.63;12.88;;;;;;;30.38;65.51;100839.06;5041028;28;70494;-46
2023/07/14 01:36:25;;;;;;;14.18;12.73;;;;;;;30.45;65.52;100839.81;5043596;28;65592;-46
2023/07/14 01:38:57;;;;;;;14.65;13.35;;;;;;;30.33;65.52;100812.63;5039479;28;69631;-46
2023/07/14 01:41:29;;;;;;;20.45;12.27;;;;;;;30.42;65.26;100829.44;5023247;28;65455;-46
2023/07/14 01:44:04;;;;;;;14.48;12.98;;;;;;;30.45;65.55;100839.81;5040220;28;69853;-46
2023/07/14 01:46:37;;;;;;;13.60;12.63;;;;;;;30.32;65.43;100807.47;5030214;28;65902;-49
2023/07/14 01:49:36;;;;;;;13.75;12.48;;;;;;;30.35;65.34;100844.91;5033196;28;70110;-46
2023/07/14 01:52:24;;;;;;;13.88;12.38;;;;;;;29.97;65.21;100749.16;5039343;28;66388;-46
2023/07/14 01:55:10;;;;;;;16.73;12.93;;;;;;;30.53;65.27;100846.84;5040889;28;70074;-47
2023/07/14 01:57:47;;;;;;;13.80;12.40;;;;;;;30.58;65.35;100845.16;5039245;28;65689;-47
2023/07/14 02:00:19;;;;;;;13.60;12.13;;;;;;;30.47;64.82;100824.19;5038740;28;70008;-47
2023/07/14 02:02:53;;;;;;;12.60;11.60;;;;;;;30.63;65.23;100839.91;5032754;28;65417;-46
2023/07/14 02:05:31;;;;;;;11.60;10.45;;;;;;;30.68;64.87;100859.03;5028635;28;70088;-47
2023/07/14 02:08:05;;;;;;;12.40;11.30;;;;;;;30.48;64.76;100806.94;5032703;28;66102;-46
2023/07/14 02:10:37;;;;;;;12.40;11.25;;;;;;;30.71;64.79;100839.66;5041652;28;70351;-47
2023/07/14 02:13:11;;;;;;;11.77;10.77;;;;;;;30.76;64.75;100846.25;5033029;28;66084;-47
2023/07/14 02:15:44;;;;;;;11.13;10.13;;;;;;;30.78;64.97;100838.75;5036472;28;70263;-46
2023/07/14 02:18:19;;;;;;;12.10;11.00;;;;;;;30.14;64.87;100725.09;5028180;28;66807;-47
2023/07/14 02:20:53;;;;;;;13.75;11.27;;;;;;;30.84;64.54;100836.03;5020187;28;69578;-47
2023/07/14 02:23:27;;;;;;;10.85;9.90;;;;;;;30.86;64.82;100835.81;5036561;28;66303;-48
2023/07/14 02:26:22;;;;;;;11.90;10.82;;;;;;;30.75;64.41;100815.66;5030489;28;70904;-47
2023/07/14 02:28:56;;;;;;;10.55;9.68;;;;;;;30.76;64.43;100811.06;5028051;28;66947;-46
2023/07/14 02:31:37;;;;;;;12.00;10.55;;;;;;;30.88;64.52;100825.59;5033704;28;69531;-47
2023/07/14 02:34:15;;;;;;;10.23;9.43;;;;;;;30.23;64.13;100707.59;5033380;28;66123;-46
2023/07/14 02:36:58;;;;;;;10.65;9.95;;;;;;;30.93;64.67;100820.34;5027187;28;70762;-47
2023/07/14 02:39:37;;;;;;;9.90;9.10;;;;;;;30.98;64.43;100817.81;5034314;28;66875;-47
2023/07/14 02:42:08;;;;;;;9.02;8.25;;;;;;;30.67;64.44;100740.97;5026310;28;70413;-46
2023/07/14 02:44:40;;;;;;;9.73;8.93;;;;;;;31.04;64.38;100810.66;5028533;28;66557;-45
2023/07/14 02:47:21;;;;;;;11.18;9.00;;;;;;;31.00;64.35;100812.97;5024800;28;69514;-47
2023/07/14 02:49:53;;;;;;;10.10;9.18;;;;;;;31.07;64.41;100788.53;5030964;28;66022;-46
2023/07/14 02:52:25;;;;;;;13.80;9.25;;;;;;;31.09;64.28;100792.69;5035420;28;70641;-48
2023/07/14 02:54:56;;;;;;;9.25;8.50;;;;;;;31.13;64.22;100798.47;5034386;28;65437;-47
2023/07/14 02:57:27;;;;;;;9.25;8.45;;;;;;;31.14;64.32;100790.09;5032111;28;69952;-48
2023/07/14 02:59:59;;;;;;;10.07;9.18;;;;;;;31.15;64.10;100802.63;5030482;28;65947;-46
2023/07/14 03:02:30;;;;;;;9.45;8.65;;;;;;;31.21;63.98;100789.22;5029461;28;70205;-47
2023/07/14 03:05:02;;;;;;;8.80;8.10;;;;;;;31.25;64.13;100796.66;5036474;28;65627;-46
2023/07/14 03:07:35;;;;;;;8.43;7.72;;;;;;;31.14;64.34;100762.19;5036483;28;69587;-53
2023/07/14 03:10:08;;;;;;;8.30;7.60;;;;;;;31.23;63.87;100787.09;5033589;28;65822;-46
2023/07/14 03:12:40;;;;;;;8.23;7.43;;;;;;;31.35;63.92;100782.59;5032080;28;69546;-46
2023/07/14 03:15:16;;;;;;;7.20;6.75;;;;;;;31.37;63.67;100788.63;5029920;28;65995;-46
2023/07/14 03:17:48;;;;;;;8.32;7.50;;;;;;;31.39;63.90;100776.53;5025752;28;70519;-50
2023/07/14 03:20:19;;;;;;;8.30;7.55;;;;;;;31.41;64.01;100770.88;5030955;28;65340;-47
2023/07/14 03:22:51;;;;;;;7.47;6.97;;;;;;;31.45;63.99;100766.66;5029739;28;69294;-47
2023/07/14 03:25:22;;;;;;;7.63;6.97;;;;;;;31.44;63.90;100762.28;5040539;28;66599;-45
2023/07/14 03:27:53;;;;;;;7.60;6.90;;;;;;;31.50;63.82;100761.38;5032795;28;70517;-47
2023/07/14 03:30:26;;;;;;;10.32;6.63;;;;;;;31.52;64.09;100762.00;5033681;28;65259;-46
2023/07/14 03:32:57;;;;;;;6.60;6.13;;;;;;;31.56;63.63;100765.88;5028240;28;69478;-46
2023/07/14 03:35:41;;;;;;;7.28;6.68;;;;;;;31.50;63.72;100749.72;5035347;28;65676;-46
2023/07/14 03:38:12;;;;;;;6.82;6.18;;;;;;;31.61;63.68;100760.63;5030195;28;70409;-46
2023/07/14 03:40:44;;;;;;;6.82;6.32;;;;;;;31.51;63.68;100733.22;5034262;28;66032;-46
2023/07/14 03:43:15;;;;;;;7.03;6.63;;;;;;;31.60;63.81;100740.00;5032143;28;69426;-46
2023/07/14 03:45:47;;;;;;;7.00;6.35;;;;;;;31.64;63.42;100739.53;5028306;28;66552;-45
2023/07/14 03:48:19;;;;;;;6.93;6.40;;;;;;;31.60;63.50;100731.03;5035471;28;69384;-46
2023/07/14 03:50:51;;;;;;;7.63;6.80;;;;;;;31.75;63.41;100744.16;5029772;28;66865;-53
2023/07/14 03:53:22;;;;;;;7.47;6.70;;;;;;;31.78;63.32;100746.41;5037070;28;69302;-46
2023/07/14 03:55:53;;;;;;;6.88;6.30;;;;;;;31.81;63.36;100745.97;5034821;28;67505;-45
2023/07/14 03:58:24;;;;;;;7.32;6.28;;;;;;;31.78;63.59;100736.41;5032166;28;69660;-47
2023/07/14 04:01:02;;;;;;;7.72;6.10;;;;;;;31.88;63.61;100743.16;5040051;28;66302;-46
2023/07/14 04:03:34;;;;;;;6.60;6.00;;;;;;;31.93;63.31;100748.75;5037848;28;70176;-46
2023/07/14 04:06:06;;;;;;;6.82;5.95;;;;;;;31.95;63.12;100731.19;5030123;28;66176;-46
2023/07/14 04:08:44;;;;;;;6.25;5.75;;;;;;;31.97;63.11;100734.50;5026175;28;69492;-45
2023/07/14 04:11:16;;;;;;;6.22;5.72;;;;;;;32.01;62.90;100724.00;5034804;28;66768;-46
2023/07/14 04:13:47;;;;;;;6.63;6.05;;;;;;;31.94;62.67;100707.84;5031298;28;70046;-46
2023/07/14 04:16:23;;;;;;;5.88;5.47;;;;;;;31.87;62.69;100682.66;5033832;28;65976;-46
2023/07/14 04:18:54;;;;;;;6.05;5.47;;;;;;;32.10;62.92;100713.66;5021163;28;69880;-50
2023/07/14 04:21:27;;;;;;;7.30;5.53;;;;;;;32.12;63.01;100706.09;5029262;28;66191;-47
2023/07/14 04:23:58;;;;;;;5.53;5.13;;;;;;;32.02;62.84;100680.38;5022879;28;70068;-45
2023/07/14 04:26:30;;;;;;;12.23;5.50;;;;;;;32.17;62.86;100695.38;5031948;28;66174;-47
2023/07/14 04:29:04;;;;;;;5.82;5.32;;;;;;;32.13;62.77;100684.16;5039524;28;70001;-46
2023/07/14 04:31:36;;;;;;;8.43;4.40;;;;;;;32.21;62.79;100691.97;5033625;28;65348;-46
2023/07/14 04:34:07;;;;;;;;;;;;;;;31.91;64.07;100691.16;5021448;28;69271;-46
2023/07/14 04:36:38;;;;;;;7.65;5.22;;;;;;;32.09;62.69;100660.44;5034658;28;66901;-46
2023/07/14 04:39:13;;;;;;;5.88;5.25;;;;;;;32.27;62.77;100695.63;5023316;28;70018;-48
2023/07/14 04:41:44;;;;;;;5.28;4.68;;;;;;;32.30;62.51;100678.88;5037163;28;66084;-47
2023/07/14 04:44:17;;;;;;;5.03;4.50;;;;;;;32.26;62.73;100666.81;5022042;28;69930;-45
2023/07/14 04:46:48;;;;;;;6.32;4.78;;;;;;;32.27;63.05;100655.75;5031511;28;66522;-45
2023/07/14 04:49:20;;;;;;;5.40;4.68;;;;;;;32.37;62.46;100674.13;5026937;28;69257;-46
2023/07/14 04:51:51;;;;;;;5.28;4.78;;;;;;;32.39;62.53;100655.75;5035902;28;66239;-46
2023/07/14 04:54:23;;;;;;;5.05;4.63;;;;;;;32.41;62.39;100664.47;5033801;28;69238;-47
2023/07/14 04:56:55;;;;;;;6.40;4.85;;;;;;;32.43;62.49;100656.94;5024201;28;66697;-46
2023/07/14 04:59:27;;;;;;;4.82;4.40;;;;;;;32.46;62.24;100652.97;5036014;28;70452;-47
2023/07/14 05:01:59;;;;;;;5.43;4.38;;;;;;;32.36;62.26;100630.97;5037373;28;66314;-46
2023/07/14 05:04:30;;;;;;;5.83;4.30;;;;;;;32.51;62.35;100652.22;5036334;28;70392;-46
2023/07/14 05:07:02;;;;;;;6.25;4.30;;;;;;;32.49;62.21;100645.16;5040245;28;66255;-47
2023/07/14 05:09:34;;;;;;;5.13;4.53;;;;;;;32.43;62.14;100628.94;5031423;28;69651;-47
2023/07/14 05:12:07;;;;;;;4.93;4.38;;;;;;;32.53;62.13;100633.81;5027876;28;65703;-47
2023/07/14 05:14:38;;;;;;;4.28;3.88;;;;;;;32.16;62.15;100568.91;5034946;28;69348;-47
2023/07/14 05:17:10;;;;;;;4.88;3.67;;;;;;;32.49;62.42;100618.00;5041060;28;66219;-46
2023/07/14 05:19:41;;;;;;;5.28;4.07;;;;;;;32.57;62.16;100619.53;5030510;28;69849;-47
2023/07/14 05:22:12;;;;;;;4.53;4.13;;;;;;;32.58;61.96;100620.34;5028029;28;65911;-46
2023/07/14 05:24:44;;;;;;;4.53;3.80;;;;;;;32.59;61.90;100608.41;5036464;28;70340;-47
2023/07/14 05:27:15;;;;;;;5.38;4.88;;;;;;;32.18;62.18;100550.47;5023313;28;65858;-46
2023/07/14 05:29:47;;;;;;;4.68;3.85;;;;;;;32.47;62.06;100581.28;5030829;28;70071;-47
2023/07/14 05:32:18;;;;;;;5.32;3.80;;;;;;;32.40;62.09;100570.53;5034825;28;66001;-46
2023/07/14 05:34:49;;;;;;;4.88;4.25;;;;;;;32.66;62.00;100604.50;5025559;28;70334;-47
2023/07/14 05:37:21;;;;;;;4.60;4.20;;;;;;;32.59;61.92;100589.41;5024917;28;65302;-47
2023/07/14 05:39:52;;;;;;;3.95;3.55;;;;;;;32.65;61.84;100585.72;5031320;28;69913;-49
2023/07/14 05:42:23;;;;;;;3.58;3.28;;;;;;;32.68;61.88;100593.41;5023871;28;66412;-46
2023/07/14 05:44:55;;;;;;;3.83;3.53;;;;;;;32.70;61.95;100592.09;5032966;28;69500;-47
2023/07/14 05:47:26;;;;;;;4.50;4.10;;;;;;;32.71;61.77;100593.75;5030921;28;66247;-47
2023/07/14 05:49:57;;;;;;;3.90;3.50;;;;;;;32.74;61.75;100575.34;5032452;28;69544;-46
2023/07/14 05:52:29;;;;;;;5.00;4.50;;;;;;;32.67;61.72;100561.88;5041883;28;65753;-46
2023/07/14 05:55:06;;;;;;;4.05;3.72;;;;;;;32.75;61.74;100560.69;5035731;28;71007;-48
2023/07/14 05:57:38;;;;;;;3.85;3.55;;;;;;;32.79;62.01;100556.41;5038939;28;64975;-46
2023/07/14 06:00:16;;;;;;;5.43;4.00;;;;;;;32.82;61.60;100550.50;5025132;28;69276;-47
2023/07/14 06:02:50;;;;;;;6.43;3.30;;;;;;;32.44;61.60;100467.72;5022466;28;66215;-47
2023/07/14 06:05:21;;;;;;;4.82;3.45;;;;;;;32.85;61.55;100506.56;5037118;28;69517;-46
2023/07/14 06:07:53;;;;;;;4.10;2.88;;;;;;;32.86;61.65;100492.72;5032612;28;65535;-46
2023/07/14 06:10:24;;;;;;;6.67;2.90;;;;;;;32.89;61.70;100491.41;5039459;28;69912;-46
2023/07/14 06:12:56;;;;;;;3.78;3.28;;;;;;;32.91;61.40;100484.69;5033314;28;66322;-48
2023/07/14 06:15:28;;;;;;;3.40;3.10;;;;;;;32.94;61.46;100489.63;5030313;28;70213;-45
2023/07/14 06:17:58;;;;;;;;;;;;;;;32.67;62.39;100483.94;5037415;28;66348;-48
2023/07/14 06:20:29;;;;;;;3.50;3.20;;;;;;;32.98;61.52;100478.25;5023384;28;70353;-48
2023/07/14 06:23:02;;;;;;;3.25;2.95;;;;;;;32.86;61.33;100456.59;5036175;28;66273;-47
2023/07/14 06:25:33;;;;;;;3.35;2.92;;;;;;;32.95;61.39;100452.41;5025518;28;70184;-47
2023/07/14 06:28:05;;;;;;;4.45;3.00;;;;;;;32.98;61.30;100457.34;5034204;28;66197;-47
2023/07/14 06:30:37;;;;;;;3.03;2.75;;;;;;;32.69;61.23;100391.38;5036029;28;70072;-48
2023/07/14 06:33:09;;;;;;;5.80;2.88;;;;;;;33.10;61.00;100450.00;5033802;28;66882;-47
2023/07/14 06:35:41;;;;;;;3.60;3.30;;;;;;;33.13;61.13;100437.81;5037890;28;70141;-47
2023/07/14 06:38:12;;;;;;;4.07;3.13;;;;;;;33.17;60.91;100433.53;5030516;28;65876;-46
2023/07/14 06:40:44;;;;;;;3.15;2.85;;;;;;;33.16;61.37;100426.44;5038271;28;70318;-50
2023/07/14 06:43:15;;;;;;;3.40;3.00;;;;;;;33.23;61.01;100432.53;5040220;28;65915;-47
2023/07/14 06:45:49;;;;;;;3.17;2.90;;;;;;;33.26;61.07;100429.31;5031858;28;70603;-47
2023/07/14 06:48:21;;;;;;;2.80;2.60;;;;;;;33.17;60.96;100405.53;5034682;28;65941;-47
2023/07/14 06:50:53;;;;;;;3.08;2.53;;;;;;;33.35;60.67;100430.56;5041759;28;70099;-46
2023/07/14 06:53:26;;;;;;;2.97;2.78;;;;;;;33.40;60.70;100420.81;5038658;28;66832;-46
2023/07/14 06:55:57;;;;;;;4.15;2.70;;;;;;;33.43;61.04;100425.75;5036817;28;69819;-46
2023/07/14 06:58:29;;;;;;;2.88;2.67;;;;;;;33.44;60.76;100416.56;5038810;28;65562;-46
2023/07/14 07:01:01;;;;;;;3.20;2.20;;;;;;;33.46;60.44;100425.25;5039240;28;70007;-48
2023/07/14 07:03:34;;;;;;;3.28;2.85;;;;;;;33.51;60.41;100423.44;5026996;28;66233;-47
2023/07/14 07:06:05;;;;;;;4.47;3.17;;;;;;;33.51;60.79;100414.47;5037348;28;69978;-46
2023/07/14 07:08:37;;;;;;;3.08;2.85;;;;;;;33.48;60.39;100401.38;5025996;28;66613;-46
2023/07/14 07:11:10;;;;;;;4.65;2.83;;;;;;;33.04;60.14;100330.56;5027925;28;69952;-47
2023/07/14 07:13:42;;;;;;;2.92;2.63;;;;;;;33.65;60.33;100413.06;5035850;28;66514;-47
2023/07/14 07:16:15;;;;;;;3.30;3.00;;;;;;;33.57;60.43;100389.03;5036228;28;71288;-49
2023/07/14 07:18:46;;;;;;;2.67;2.47;;;;;;;33.63;60.04;100393.47;5036712;28;66034;-46
2023/07/14 07:21:18;;;;;;;2.78;2.20;;;;;;;33.73;60.21;100404.47;5040125;28;70582;-46
2023/07/14 07:23:49;;;;;;;2.72;2.53;;;;;;;33.57;60.25;100372.69;5031673;28;65999;-45
2023/07/14 07:26:21;;;;;;;3.00;2.38;;;;;;;33.79;60.00;100403.50;5038839;28;70032;-47
2023/07/14 07:28:52;;;;;;;3.20;2.30;;;;;;;33.80;60.30;100399.69;5035267;28;65910;-49
2023/07/14 07:31:24;;;;;;;2.65;2.28;;;;;;;33.75;60.03;100383.28;5036895;28;70371;-47
2023/07/14 07:33:55;;;;;;;;;;;;;;;33.63;60.30;100389.91;5034265;28;66525;-47
2023/07/14 07:36:27;;;;;;;2.95;2.17;;;;;;;33.86;59.91;100386.16;5031849;28;69921;-47
2023/07/14 07:38:59;;;;;;;2.65;2.10;;;;;;;33.93;59.48;100384.06;5031364;28;66549;-46
2023/07/14 07:41:30;;;;;;;;;;;;;;;33.70;60.25;100383.22;5033456;28;70362;-46
2023/07/14 07:44:01;;;;;;;3.42;2.72;;;;;;;33.89;59.70;100372.03;5033957;28;66277;-46
2023/07/14 07:46:33;;;;;;;2.90;2.45;;;;;;;33.88;59.49;100367.66;5026596;28;70038;-47
2023/07/14 07:49:05;;;;;;;2.85;2.58;;;;;;;33.95;59.84;100373.75;5027606;28;66783;-49
2023/07/14 07:51:37;;;;;;;3.40;2.10;;;;;;;34.01;59.25;100367.28;5034514;28;70628;-47
2023/07/14 07:54:08;;;;;;;4.90;2.50;;;;;;;34.04;59.51;100361.34;5027050;28;65783;-47
2023/07/14 07:56:42;;;;;;;2.38;2.17;;;;;;;33.90;59.74;100330.16;5034103;28;70394;-48
2023/07/14 07:59:17;;;;;;;2.42;2.22;;;;;;;34.09;59.07;100352.44;5026683;28;65929;-46
2023/07/14 08:01:48;;;;;;;2.60;2.08;;;;;;;33.98;59.17;100324.25;5032021;28;70380;-46
2023/07/14 08:04:21;;;;;;;2.80;2.40;;;;;;;34.04;59.18;100334.13;5035081;28;65828;-46
2023/07/14 08:06:53;;;;;;;2.63;2.40;;;;;;;34.08;59.40;100335.31;5029268;28;70268;-46
2023/07/14 08:09:24;;;;;;;2.70;2.30;;;;;;;34.16;58.95;100339.47;5034218;28;66252;-48
2023/07/14 08:11:57;;;;;;;3.22;2.53;;;;;;;33.69;58.92;100253.75;5028930;28;69672;-46
2023/07/14 08:14:29;;;;;;;2.65;2.22;;;;;;;33.93;59.31;100283.38;5028353;28;66870;-47
2023/07/14 08:17:00;;;;;;;2.67;2.47;;;;;;;34.17;59.24;100322.88;5032177;28;71790;-49
2023/07/14 08:19:31;;;;;;;3.20;1.98;;;;;;;34.21;58.85;100324.03;5038558;28;66280;-47
2023/07/14 08:22:03;;;;;;;2.63;2.42;;;;;;;34.22;59.26;100314.75;5039489;28;70053;-46
2023/07/14 08:24:34;;;;;;;3.85;2.10;;;;;;;34.23;58.97;100310.94;5029522;28;66699;-47
2023/07/14 08:27:06;;;;;;;2.55;2.10;;;;;;;34.22;58.78;100298.44;5032666;28;69562;-47
2023/07/14 08:29:38;;;;;;;2.00;1.80;;;;;;;34.18;58.69;100286.41;5025270;28;66601;-46
2023/07/14 08:32:09;;;;;;;2.88;1.98;;;;;;;34.24;58.78;100311.75;5013938;28;69881;-46
2023/07/14 08:34:41;;;;;;;4.63;1.98;;;;;;;34.22;59.26;100303.88;5031307;28;66929;-47
2023/07/14 08:37:12;;;;;;;3.72;2.53;;;;;;;34.22;59.41;100292.97;5031873;28;70252;-47
2023/07/14 08:39:44;;;;;;;4.25;2.17;;;;;;;34.22;59.21;100292.16;5033860;28;66435;-47
2023/07/14 08:42:50;;;;;;;2.50;1.95;;;;;;;34.26;58.45;100296.00;5036020;28;68725;-47
2023/07/14 08:45:41;;;;;;;2.60;2.40;;;;;;;33.61;58.89;100209.88;5038610;28;65391;-46
2023/07/14 08:48:37;;;;;;;2.38;1.90;;;;;;;34.21;58.81;100312.28;5022352;28;69739;-46
2023/07/14 08:51:36;;;;;;;2.50;2.30;;;;;;;33.58;58.54;100206.56;5034945;28;65620;-46
2023/07/14 08:54:17;;;;;;;2.25;2.05;;;;;;;33.61;58.67;100199.81;5031095;28;71063;-46
2023/07/14 08:56:50;;;;;;;3.03;2.23;;;;;;;34.30;58.78;100309.91;5026812;28;66298;-46
2023/07/14 08:59:32;;;;;;;2.47;2.05;;;;;;;34.19;58.64;100307.09;5029187;28;70278;-47
2023/07/14 09:02:31;;;;;;;2.78;2.58;;;;;;;34.18;58.59;100310.88;5028882;28;66511;-46
2023/07/14 09:05:11;;;;;;;2.35;2.10;;;;;;;33.75;59.14;100230.97;5023949;28;69440;-47
2023/07/14 09:07:43;;;;;;;2.97;2.25;;;;;;;34.15;59.11;100292.34;5025611;28;66768;-46
2023/07/14 09:10:14;;;;;;;;;;;;;;;34.09;59.09;100304.28;5025585;28;69311;-46
2023/07/14 09:12:51;;;;;;;3.13;2.92;;;;;;;34.35;58.89;100309.97;5031027;28;66836;-46
2023/07/14 09:15:27;;;;;;;4.78;2.60;;;;;;;33.34;58.75;100159.78;5034096;28;70416;-46
2023/07/14 09:18:22;;;;;;;2.53;2.33;;;;;;;34.30;58.98;100318.09;5030654;28;66838;-47
2023/07/14 09:21:17;;;;;;;3.17;2.38;;;;;;;34.28;58.68;100312.09;5038547;28;69934;-47
2023/07/14 09:23:48;;;;;;;5.38;2.50;;;;;;;34.14;58.85;100306.25;5023259;28;65618;-46
2023/07/14 09:26:37;;;;;;;3.20;2.90;;;;;;;33.71;58.97;100273.38;5030937;28;70460;-47
2023/07/14 09:29:15;;;;;;;3.97;2.75;;;;;;;34.21;59.25;100362.13;5026041;28;66063;-46
2023/07/14 09:31:51;;;;;;;2.85;2.65;;;;;;;34.28;58.98;100400.03;5029069;28;70244;-47
2023/07/14 09:34:30;;;;;;;3.05;2.53;;;;;;;34.09;59.71;100363.34;5029253;28;66238;-46
2023/07/14 09:37:32;;;;;;;3.08;2.85;;;;;;;33.66;59.17;100295.06;5030825;28;70617;-46
2023/07/14 09:40:18;;;;;;;6.27;2.87;;;;;;;34.15;59.42;100395.78;5030795;28;66497;-46
2023/07/14 09:42:55;;;;;;;6.25;3.15;;;;;;;34.20;58.60;100425.78;5025237;28;70035;-46
2023/07/14 09:45:38;;;;;;;3.53;3.22;;;;;;;34.13;58.94;100403.41;5032938;28;66519;-46
2023/07/14 09:48:19;;;;;;;9.90;3.15;;;;;;;34.15;58.40;100420.28;5024381;28;70593;-47
2023/07/14 09:51:16;;;;;;;3.78;3.40;;;;;;;33.60;58.76;100336.88;5029197;28;66304;-46
2023/07/14 09:54:07;;;;;;;3.95;3.63;;;;;;;34.10;59.02;100398.47;5038369;28;70497;-47
2023/07/14 09:56:44;;;;;;;5.33;3.50;;;;;;;34.06;58.79;100386.44;5028796;28;66776;-47
2023/07/14 09:59:24;;;;;;;4.50;3.65;;;;;;;34.07;58.82;100415.28;5032574;28;70158;-46
2023/07/14 10:02:02;;;;;;;3.58;3.28;;;;;;;34.09;58.99;100407.69;5025944;28;66599;-46
2023/07/14 10:04:36;;;;;;;4.03;3.63;;;;;;;33.95;59.06;100406.41;5034439;28;70251;-47
2023/07/14 10:07:26;;;;;;;4.53;3.83;;;;;;;33.97;59.76;100445.91;5028342;28;66347;-46
2023/07/14 10:09:59;;;;;;;3.72;3.17;;;;;;;33.52;59.46;100351.72;5031368;28;70183;-46
2023/07/14 10:12:42;;;;;;;8.38;3.55;;;;;;;33.65;60.07;100385.88;5033544;28;66688;-46
2023/07/14 10:15:38;;;;;;;6.72;3.20;;;;;;;33.25;59.79;100342.59;5038509;28;70297;-48
2023/07/14 10:18:15;;;;;;;2.90;2.70;;;;;;;33.97;59.90;100469.56;5031943;28;66339;-47
2023/07/14 10:21:21;;;;;;;3.63;3.00;;;;;;;33.87;59.99;100474.84;5035255;28;70101;-47
2023/07/14 10:23:57;;;;;;;4.20;2.70;;;;;;;34.01;59.40;100478.88;5027708;28;66439;-46
2023/07/14 10:26:31;;;;;;;3.08;2.88;;;;;;;33.48;58.83;100390.50;5030628;28;69675;-48
2023/07/14 10:29:16;;;;;;;2.72;2.53;;;;;;;33.36;59.40;100383.25;5033839;28;65461;-47
2023/07/14 10:32:18;;;;;;;4.65;2.30;;;;;;;33.86;59.84;100484.94;5031972;28;69953;-47
2023/07/14 10:35:15;;;;;;;3.40;2.40;;;;;;;33.19;59.83;100368.88;5032287;28;66086;-46
2023/07/14 10:37:56;;;;;;;2.83;2.53;;;;;;;32.72;62.18;100374.59;5034615;28;70307;-47
2023/07/14 10:40:33;;;;;;;5.22;2.65;;;;;;;32.98;63.52;100434.78;5031950;28;67753;-46
2023/07/14 10:43:19;;;;;;;2.85;2.65;;;;;;;32.52;63.86;100372.34;5033032;28;69412;-45
2023/07/14 10:46:01;;;;;;;3.38;2.60;;;;;;;32.57;63.87;100402.31;5031653;28;66703;-45
2023/07/14 10:48:47;;;;;;;5.63;2.35;;;;;;;32.33;64.30;100373.56;5030777;28;69519;-46
2023/07/14 10:51:37;;;;;;;3.40;2.42;;;;;;;32.88;64.33;100479.75;5033825;28;65692;-46
2023/07/14 10:54:18;;;;;;;5.97;2.45;;;;;;;32.72;64.26;100486.75;5032113;28;70029;-46
2023/07/14 10:57:03;;;;;;;6.63;2.53;;;;;;;32.07;64.12;100361.38;5039474;28;66365;-46
2023/07/14 11:00:19;;;;;;;4.18;2.33;;;;;;;32.71;64.46;100468.84;5040313;28;69415;-45
2023/07/14 11:03:15;;;;;;;5.47;2.95;;;;;;;32.82;62.87;100442.69;5024094;28;66646;-46
2023/07/14 11:06:05;;;;;;;14.48;3.03;;;;;;;32.86;61.96;100432.97;5030659;28;70269;-46
2023/07/14 11:08:38;;;;;;;2.65;2.30;;;;;;;33.23;60.96;100486.88;5026216;28;65564;-45
2023/07/14 11:11:46;;;;;;;3.28;2.97;;;;;;;32.76;60.94;100427.34;5030016;28;70370;-45
2023/07/14 11:14:27;;;;;;;4.43;2.70;;;;;;;33.41;60.99;100526.63;5034232;28;65339;-47
2023/07/14 11:17:09;;;;;;;7.65;3.75;;;;;;;32.91;60.99;100451.25;5038932;28;70456;-45
2023/07/14 11:19:59;;;;;;;4.93;3.45;;;;;;;33.44;60.60;100568.81;5049922;28;66230;-45
2023/07/14 11:22:58;;;;;;;3.97;3.67;;;;;;;33.40;60.88;100573.91;5031266;28;69522;-45
2023/07/14 11:25:52;;;;;;;4.13;3.83;;;;;;;33.51;60.63;100581.16;5033079;28;66736;-44
2023/07/14 11:29:00;;;;;;;6.50;3.88;;;;;;;33.43;60.82;100572.59;5025663;28;70113;-46
2023/07/14 11:31:36;;;;;;;5.88;3.85;;;;;;;33.05;60.53;100485.22;5036815;28;65464;-46
2023/07/14 11:34:16;;;;;;;4.38;3.97;;;;;;;33.37;60.72;100537.16;5028882;28;70352;-45
2023/07/14 11:36:48;;;;;;;5.07;4.20;;;;;;;33.53;61.22;100556.47;5028234;28;66712;-45
2023/07/14 11:39:25;;;;;;;4.53;4.15;;;;;;;32.47;60.65;100397.50;5039823;28;70049;-45
2023/07/14 11:41:56;;;;;;;4.40;4.10;;;;;;;33.43;60.65;100545.41;5032209;28;65941;-45
2023/07/14 11:44:29;;;;;;;4.70;4.30;;;;;;;32.97;60.77;100482.88;5040283;28;69978;-46
2023/07/14 11:47:00;;;;;;;5.07;4.53;;;;;;;33.43;61.29;100567.97;5037765;28;65533;-46
2023/07/14 11:49:38;;;;;;;4.45;4.15;;;;;;;33.45;60.98;100575.91;5031305;28;68888;-44
2023/07/14 11:52:21;;;;;;;5.32;4.50;;;;;;;33.35;61.08;100565.69;5029805;28;66409;-45
2023/07/14 11:55:20;;;;;;;4.65;4.25;;;;;;;33.27;61.70;100556.03;5033707;28;70442;-47
2023/07/14 11:58:13;;;;;;;4.90;4.50;;;;;;;33.26;61.36;100578.81;5030564;28;65962;-45
2023/07/14 12:00:47;;;;;;;5.28;4.78;;;;;;;33.41;61.53;100618.25;5029862;28;69447;-45
2023/07/14 12:03:36;;;;;;;5.78;5.28;;;;;;;32.80;61.47;100542.59;5036416;28;66500;-45
2023/07/14 12:06:19;;;;;;;5.70;5.30;;;;;;;33.35;61.51;100629.03;5035143;28;69974;-45